Seaspan Chiwan — VRBH3 — position and weather

sailwx.info

Track history (hours):
 
Tides and Currents Weather Stations Pressure Air Temp Water Temp Dewpoint Dewpoint Depression Visibility Wind Speed Wind Dir Waves Ship Positions

Seaspan Chiwan

Last reported at 2015-Aug-27 06:21 UTC. Time now 2015-Aug-28 09:34 UTC.
Position N 26°55' W 115°02'.

Length 260 m; draft 10.7 m.

Type: Cargo ship. MMSI: 477014500.

Date/timePositionNaut miles runAvg speedWind from/ knotsBaromVisibWave heightAir tempDewpointWater temp
2015-Aug-27 06:21N 26°55' W 115°02'1215.4
2015-Aug-27 05:33N 27°06' W 115°10'1615.5
2015-Aug-27 04:33N 27°18' W 115°20'5115.0
2015-Aug-27 01:09N 27°60' W 115°53'1115.0
2015-Aug-27 00:23N 28°10' W 115°60'2714.8
2015-Aug-26 22:34N 28°33' W 116°16'8914.8
2015-Aug-26 16:33N 29°55' W 116°54'1615.6
2015-Aug-26 15:33N 30°10' W 116°59'1918.5
2015-Aug-26 14:33N 30°28' W 117°05'1918.8
2015-Aug-26 13:33N 30°46' W 117°11'1918.8
2015-Aug-26 12:33N 31°04' W 117°16'1918.4
2015-Aug-26 11:32N 31°22' W 117°21'1818.2
2015-Aug-26 10:33N 31°40' W 117°27'1818.2
2015-Aug-26 09:33N 31°57' W 117°32'1818.4
2015-Aug-26 08:33N 32°15' W 117°38'1918.7
2015-Aug-26 07:33N 32°33' W 117°43'1818.0
2015-Aug-26 06:34N 32°49' W 117°53'1818.2
2015-Aug-26 05:33N 33°06' W 117°59'1817.5
2015-Aug-26 04:34N 33°22' W 118°08'1211.7
2015-Aug-26 03:33N 33°33' W 118°13'10 9.9
2015-Aug-26 02:33N 33°43' W 118°15'1 1.3
2015-Aug-26 01:32N 33°44' W 118°15'0 0.0
2015-Aug-26 00:33N 33°44' W 118°15'0 0.0
2015-Aug-25 23:33N 33°44' W 118°15'0 0.0
2015-Aug-25 22:33N 33°44' W 118°15'0 0.0
2015-Aug-25 21:34N 33°44' W 118°15'0 0.0
2015-Aug-25 20:33N 33°44' W 118°15'0 0.0
2015-Aug-25 19:33N 33°44' W 118°15'0 0.0
2015-Aug-25 18:33N 33°44' W 118°15'0 0.0
2015-Aug-25 17:34N 33°44' W 118°15'0 0.0
2015-Aug-25 16:33N 33°44' W 118°15'0 0.0
2015-Aug-25 15:33N 33°44' W 118°15'0 0.0
2015-Aug-25 14:33N 33°44' W 118°15'0 0.0
2015-Aug-25 13:34N 33°44' W 118°15'0 0.0
2015-Aug-25 12:34N 33°44' W 118°15'0 0.1
2015-Aug-25 11:33N 33°44' W 118°15'0 0.0
2015-Aug-25 10:34N 33°44' W 118°15'0 0.0
2015-Aug-25 09:33N 33°44' W 118°15'0 0.1
2015-Aug-25 08:33N 33°44' W 118°15'0 0.0
2015-Aug-25 07:33N 33°44' W 118°15'0 0.0
2015-Aug-25 06:34N 33°44' W 118°15'0 0.0
2015-Aug-25 05:34N 33°44' W 118°15'0 0.0
2015-Aug-25 04:33N 33°44' W 118°15'0 0.0
2015-Aug-25 03:33N 33°44' W 118°15'0 0.1
2015-Aug-25 02:33N 33°44' W 118°15'0 0.0
2015-Aug-25 01:33N 33°44' W 118°15'0 0.1
2015-Aug-25 00:33N 33°44' W 118°15'0 0.0
2015-Aug-24 23:33N 33°44' W 118°15'0 0.0
2015-Aug-24 22:33N 33°44' W 118°15'0 0.0
2015-Aug-24 21:33N 33°44' W 118°15'0 0.0
2015-Aug-24 20:33N 33°44' W 118°15'5 4.9
2015-Aug-24 19:33N 33°39' W 118°13'8 7.9
2015-Aug-24 18:33N 33°37' W 118°23'1110.5
2015-Aug-24 17:33N 33°42' W 118°34'1010.5
2015-Aug-24 16:34N 33°47' W 118°45'1514.7
2015-Aug-24 15:33N 33°55' W 118°60'1615.9
2015-Aug-24 14:33N 34°02' W 119°17'1616.0
2015-Aug-24 13:33N 34°07' W 119°36'1716.3
2015-Aug-24 12:31N 34°11' W 119°55'2015.6
2015-Aug-24 11:14N 34°17' W 120°19'1115.7
2015-Aug-24 10:32N 34°19' W 120°32'1514.9
2015-Aug-24 09:33N 34°23' W 120°49'1514.9
2015-Aug-24 08:33N 34°33' W 121°02'1716.6
2015-Aug-24 07:33N 34°47' W 121°13'1615.7
2015-Aug-24 06:33N 34°59' W 121°24'1615.8
2015-Aug-24 05:33N 35°13' W 121°35'1816.6
2015-Aug-24 04:30N 35°27' W 121°48'1616.7
2015-Aug-24 03:33N 35°40' W 121°57'3216.3
2015-Aug-24 01:33N 36°10' W 122°15'1616.2
2015-Aug-24 00:33N 36°25' W 122°21'1312.4
2015-Aug-23 23:32N 36°37' W 122°25'1311.7
2015-Aug-23 22:27N 36°48' W 122°33'1516.8
2015-Aug-23 21:33N 37°02' W 122°40'1616.5
2015-Aug-23 20:34N 37°19' W 122°44'1716.7
2015-Aug-23 19:34N 37°35' W 122°44'1515.4
2015-Aug-23 18:33N 37°49' W 122°52'1616.4
2015-Aug-23 17:33N 37°57' W 123°10'1716.5
2015-Aug-23 16:34N 38°10' W 123°24'1716.6
2015-Aug-23 15:33N 38°24' W 123°35'1716.5
2015-Aug-23 14:33N 38°39' W 123°45'1615.9
2015-Aug-23 13:33N 38°52' W 123°55'1615.7
2015-Aug-23 12:33N 39°06' W 124°06'1615.7
2015-Aug-23 11:30N 39°20' W 124°17'20916.2
2015-Aug-22 22:33N 42°47' W 124°60'1616.2
2015-Aug-22 21:33N 43°03' W 124°60'1716.5
2015-Aug-22 20:31N 43°20' W 125°00'1616.7
2015-Aug-22 19:32N 43°36' W 125°00'1716.9
2015-Aug-22 18:33N 43°53' W 124°60'3516.6
2015-Aug-22 16:27N 44°28' W 125°00'1616.9
2015-Aug-22 15:31N 44°44' W 125°00'1616.7
2015-Aug-22 14:33N 44°60' W 124°59'1716.7
2015-Aug-22 13:33N 45°17' W 124°60'1716.8
2015-Aug-22 12:33N 45°33' W 125°00'1716.9
2015-Aug-22 11:33N 45°50' W 125°01'1716.9
2015-Aug-22 10:33N 46°07' W 124°60'1716.9
2015-Aug-22 09:33N 46°24' W 124°60'1717.1
2015-Aug-22 08:33N 46°41' W 124°60'1716.8
2015-Aug-22 07:34N 46°58' W 124°59'1716.7
2015-Aug-22 06:33N 47°14' W 125°06'1717.0
2015-Aug-22 05:33N 47°30' W 125°13'1717.0
2015-Aug-22 04:33N 47°46' W 125°21'1615.9
2015-Aug-22 03:33N 48°02' W 125°23'1717.0
2015-Aug-22 02:33N 48°17' W 125°12'1616.2
2015-Aug-22 01:34N 48°31' W 124°58'1616.0
2015-Aug-22 00:33N 48°28' W 124°35'1716.6
2015-Aug-21 23:33N 48°22' W 124°12'1616.4
2015-Aug-21 22:34N 48°17' W 123°48'1514.5
2015-Aug-21 21:33N 48°20' W 123°27'1413.6
2015-Aug-21 20:33N 48°29' W 123°13'1616.0
2015-Aug-21 19:33N 48°45' W 123°06'1514.9
2015-Aug-21 18:33N 48°58' W 123°16'10 9.5
2015-Aug-21 17:33N 49°08' W 123°13'1010.2
2015-Aug-21 16:33N 49°09' W 122°57'2 2.4
2015-Aug-21 15:31N 49°11' W 122°55'0 0.0
2015-Aug-21 14:33N 49°11' W 122°55'0 0.0
2015-Aug-21 13:33N 49°11' W 122°55'0 0.0
2015-Aug-21 12:33N 49°11' W 122°55'0 0.0
2015-Aug-21 11:33N 49°11' W 122°55'0 0.0
2015-Aug-21 10:33N 49°11' W 122°55'0 0.0
2015-Aug-21 09:33N 49°11' W 122°55'0 0.0
2015-Aug-21 08:33N 49°11' W 122°55'0 0.0
2015-Aug-21 07:33N 49°11' W 122°55'0 0.0
2015-Aug-21 06:33N 49°11' W 122°55'0 0.0
2015-Aug-21 05:33N 49°11' W 122°55'0 0.0
2015-Aug-21 04:33N 49°11' W 122°55'0 0.0
2015-Aug-21 03:33N 49°11' W 122°55'0 0.0
2015-Aug-21 02:33N 49°11' W 122°55'0 0.0
2015-Aug-21 01:33N 49°11' W 122°55'0 0.0
2015-Aug-21 00:33N 49°11' W 122°55'0 0.0
2015-Aug-20 23:33N 49°11' W 122°55'0 0.0
2015-Aug-20 22:33N 49°11' W 122°55'5 4.6
2015-Aug-20 21:33N 49°09' W 123°01'10 9.6
2015-Aug-20 20:33N 49°07' W 123°15'7 7.2
2015-Aug-20 19:33N 49°00' W 123°14'1615.8
2015-Aug-20 18:33N 48°47' W 123°01'1514.7
2015-Aug-20 17:33N 48°35' W 123°13'1414.1
2015-Aug-20 16:33N 48°22' W 123°20'2 1.5
2015-Aug-20 15:31N 48°20' W 123°22'0 0.0
2015-Aug-20 14:31N 48°20' W 123°22'0 0.0
2015-Aug-20 13:31N 48°20' W 123°22'0 0.0
2015-Aug-20 12:31N 48°20' W 123°22'0 0.1
2015-Aug-20 11:31N 48°20' W 123°22'0 0.1
2015-Aug-20 10:31N 48°20' W 123°22'0 0.0
2015-Aug-20 09:31N 48°20' W 123°22'0 0.1
2015-Aug-20 08:31N 48°20' W 123°22'0 0.1
2015-Aug-20 07:28N 48°20' W 123°22'1 0.7
2015-Aug-20 06:33N 48°20' W 123°23'1111.4
2015-Aug-20 05:34N 48°09' W 123°23'1515.3
2015-Aug-20 04:33N 48°12' W 123°00'1514.4
2015-Aug-20 03:32N 48°07' W 122°40'1414.3
2015-Aug-20 02:33N 47°55' W 122°29'1515.2
2015-Aug-20 01:33N 47°40' W 122°27'1615.5
2015-Aug-20 00:33N 47°25' W 122°22'9 8.7
2015-Aug-19 23:33N 47°16' W 122°24'1 1.2
2015-Aug-19 22:16N 47°15' W 122°23'0 0.0
2015-Aug-19 21:33N 47°15' W 122°23'0 0.0
2015-Aug-19 20:33N 47°15' W 122°23'0 0.0
2015-Aug-19 19:32N 47°15' W 122°23'0 0.0
2015-Aug-19 18:31N 47°15' W 122°23'0 0.0
2015-Aug-19 17:33N 47°15' W 122°23'0 0.0
2015-Aug-19 16:33N 47°15' W 122°23'0 0.0
2015-Aug-19 15:33N 47°15' W 122°23'0 0.0
2015-Aug-19 14:33N 47°15' W 122°23'0 0.0
2015-Aug-19 13:33N 47°15' W 122°23'0 0.0
2015-Aug-19 12:33N 47°15' W 122°23'0 0.0
2015-Aug-19 11:33N 47°15' W 122°23'0 0.0
2015-Aug-19 10:33N 47°15' W 122°23'0 0.0
2015-Aug-19 09:33N 47°15' W 122°23'0 0.0
2015-Aug-19 08:33N 47°15' W 122°23'0 0.0
2015-Aug-19 07:33N 47°15' W 122°23'0 0.0
2015-Aug-19 06:33N 47°15' W 122°23'0 0.0
2015-Aug-19 05:33N 47°15' W 122°23'0 0.0
2015-Aug-19 04:33N 47°15' W 122°23'0 0.0
2015-Aug-19 03:33N 47°15' W 122°23'0 0.0
2015-Aug-19 02:33N 47°15' W 122°23'0 0.0
2015-Aug-19 01:33N 47°15' W 122°23'0 0.0
2015-Aug-19 00:33N 47°15' W 122°23'0 0.0
2015-Aug-18 23:33N 47°15' W 122°23'1 0.7
2015-Aug-18 22:31N 47°16' W 122°23'5 5.0
2015-Aug-18 21:33N 47°20' W 122°27'1514.5
2015-Aug-18 20:34N 47°34' W 122°28'1818.3
2015-Aug-18 19:34N 47°53' W 122°29'1615.9
2015-Aug-18 18:33N 48°07' W 122°40'1615.7
2015-Aug-18 17:33N 48°12' W 123°03'1515.1
2015-Aug-18 16:33N 48°10' W 123°25'1211.6
2015-Aug-18 15:33N 48°13' W 123°42'1111.2
2015-Aug-18 14:33N 48°14' W 123°59'1414.4
2015-Aug-18 13:33N 48°21' W 124°18'1616.0
2015-Aug-18 12:33N 48°27' W 124°40'1515.0
2015-Aug-18 11:33N 48°26' W 125°02'1717.0
2015-Aug-18 10:34N 48°11' W 125°14'1616.0
2015-Aug-18 09:33N 47°57' W 125°25'1616.5
2015-Aug-18 08:33N 47°41' W 125°19'1716.8
2015-Aug-18 07:33N 47°25' W 125°11'1716.7
2015-Aug-18 06:33N 47°09' W 125°04'1616.1
2015-Aug-18 05:34N 46°53' W 124°60'1616.0
2015-Aug-18 04:33N 46°37' W 124°60'615.8
2015-Aug-18 04:11N 46°31' W 124°59'115.8
2015-Aug-18 04:09N 46°31' W 124°60'915.7
2015-Aug-18 03:33N 46°21' W 124°60'1615.7
2015-Aug-18 02:33N 46°06' W 125°01'1515.5
2015-Aug-18 01:33N 45°50' W 125°00'1615.9
2015-Aug-18 00:33N 45°34' W 124°59'1616.1
2015-Aug-17 23:33N 45°18' W 124°60'1615.7
2015-Aug-17 22:33N 45°03' W 124°60'1615.7
2015-Aug-17 21:33N 44°47' W 125°00'1615.7
2015-Aug-17 20:33N 44°31' W 125°00'1615.9
2015-Aug-17 19:33N 44°15' W 125°00'1615.9
2015-Aug-17 18:33N 43°59' W 125°00'1616.1
2015-Aug-17 17:33N 43°43' W 125°00'1616.1
2015-Aug-17 16:33N 43°27' W 124°60'1616.0
2015-Aug-17 15:33N 43°11' W 125°00'1515.1
2015-Aug-17 14:32N 42°56' W 125°00'  
Track history (hours):
 
Tides and Currents Weather Stations Pressure Air Temp Water Temp Dewpoint Dewpoint Depression Visibility Wind Speed Wind Dir Waves Ship Positions

Seaspan Chiwan

Last reported at 2015-Aug-27 06:21 UTC. Time now 2015-Aug-28 09:34 UTC.
Position N 26°55' W 115°02'.

Length 260 m; draft 10.7 m.

Type: Cargo ship. MMSI: 477014500.

Date/timePositionNaut miles runAvg speedWind from/ knotsBaromVisibWave heightAir tempDewpointWater temp
2015-Aug-27 06:21N 26°55' W 115°02'1215.4
2015-Aug-27 05:33N 27°06' W 115°10'1615.5
2015-Aug-27 04:33N 27°18' W 115°20'5115.0
2015-Aug-27 01:09N 27°60' W 115°53'1115.0
2015-Aug-27 00:23N 28°10' W 115°60'2714.8
2015-Aug-26 22:34N 28°33' W 116°16'8914.8
2015-Aug-26 16:33N 29°55' W 116°54'1615.6
2015-Aug-26 15:33N 30°10' W 116°59'1918.5
2015-Aug-26 14:33N 30°28' W 117°05'1918.8
2015-Aug-26 13:33N 30°46' W 117°11'1918.8
2015-Aug-26 12:33N 31°04' W 117°16'1918.4
2015-Aug-26 11:32N 31°22' W 117°21'1818.2
2015-Aug-26 10:33N 31°40' W 117°27'1818.2
2015-Aug-26 09:33N 31°57' W 117°32'1818.4
2015-Aug-26 08:33N 32°15' W 117°38'1918.7
2015-Aug-26 07:33N 32°33' W 117°43'1818.0
2015-Aug-26 06:34N 32°49' W 117°53'1818.2
2015-Aug-26 05:33N 33°06' W 117°59'1817.5
2015-Aug-26 04:34N 33°22' W 118°08'1211.7
2015-Aug-26 03:33N 33°33' W 118°13'10 9.9
2015-Aug-26 02:33N 33°43' W 118°15'1 1.3
2015-Aug-26 01:32N 33°44' W 118°15'0 0.0
2015-Aug-26 00:33N 33°44' W 118°15'0 0.0
2015-Aug-25 23:33N 33°44' W 118°15'0 0.0
2015-Aug-25 22:33N 33°44' W 118°15'0 0.0
2015-Aug-25 21:34N 33°44' W 118°15'0 0.0
2015-Aug-25 20:33N 33°44' W 118°15'0 0.0
2015-Aug-25 19:33N 33°44' W 118°15'0 0.0
2015-Aug-25 18:33N 33°44' W 118°15'0 0.0
2015-Aug-25 17:34N 33°44' W 118°15'0 0.0
2015-Aug-25 16:33N 33°44' W 118°15'0 0.0
2015-Aug-25 15:33N 33°44' W 118°15'0 0.0
2015-Aug-25 14:33N 33°44' W 118°15'0 0.0
2015-Aug-25 13:34N 33°44' W 118°15'0 0.0
2015-Aug-25 12:34N 33°44' W 118°15'0 0.1
2015-Aug-25 11:33N 33°44' W 118°15'0 0.0
2015-Aug-25 10:34N 33°44' W 118°15'0 0.0
2015-Aug-25 09:33N 33°44' W 118°15'0 0.1
2015-Aug-25 08:33N 33°44' W 118°15'0 0.0
2015-Aug-25 07:33N 33°44' W 118°15'0 0.0
2015-Aug-25 06:34N 33°44' W 118°15'0 0.0
2015-Aug-25 05:34N 33°44' W 118°15'0 0.0
2015-Aug-25 04:33N 33°44' W 118°15'0 0.0
2015-Aug-25 03:33N 33°44' W 118°15'0 0.1
2015-Aug-25 02:33N 33°44' W 118°15'0 0.0
2015-Aug-25 01:33N 33°44' W 118°15'0 0.1
2015-Aug-25 00:33N 33°44' W 118°15'0 0.0
2015-Aug-24 23:33N 33°44' W 118°15'0 0.0
2015-Aug-24 22:33N 33°44' W 118°15'0 0.0
2015-Aug-24 21:33N 33°44' W 118°15'0 0.0
2015-Aug-24 20:33N 33°44' W 118°15'5 4.9
2015-Aug-24 19:33N 33°39' W 118°13'8 7.9
2015-Aug-24 18:33N 33°37' W 118°23'1110.5
2015-Aug-24 17:33N 33°42' W 118°34'1010.5
2015-Aug-24 16:34N 33°47' W 118°45'1514.7
2015-Aug-24 15:33N 33°55' W 118°60'1615.9
2015-Aug-24 14:33N 34°02' W 119°17'1616.0
2015-Aug-24 13:33N 34°07' W 119°36'1716.3
2015-Aug-24 12:31N 34°11' W 119°55'2015.6
2015-Aug-24 11:14N 34°17' W 120°19'1115.7
2015-Aug-24 10:32N 34°19' W 120°32'1514.9
2015-Aug-24 09:33N 34°23' W 120°49'1514.9
2015-Aug-24 08:33N 34°33' W 121°02'1716.6
2015-Aug-24 07:33N 34°47' W 121°13'1615.7
2015-Aug-24 06:33N 34°59' W 121°24'1615.8
2015-Aug-24 05:33N 35°13' W 121°35'1816.6
2015-Aug-24 04:30N 35°27' W 121°48'1616.7
2015-Aug-24 03:33N 35°40' W 121°57'3216.3
2015-Aug-24 01:33N 36°10' W 122°15'1616.2
2015-Aug-24 00:33N 36°25' W 122°21'1312.4
2015-Aug-23 23:32N 36°37' W 122°25'1311.7
2015-Aug-23 22:27N 36°48' W 122°33'1516.8
2015-Aug-23 21:33N 37°02' W 122°40'1616.5
2015-Aug-23 20:34N 37°19' W 122°44'1716.7
2015-Aug-23 19:34N 37°35' W 122°44'1515.4
2015-Aug-23 18:33N 37°49' W 122°52'1616.4
2015-Aug-23 17:33N 37°57' W 123°10'1716.5
2015-Aug-23 16:34N 38°10' W 123°24'1716.6
2015-Aug-23 15:33N 38°24' W 123°35'1716.5
2015-Aug-23 14:33N 38°39' W 123°45'1615.9
2015-Aug-23 13:33N 38°52' W 123°55'1615.7
2015-Aug-23 12:33N 39°06' W 124°06'1615.7
2015-Aug-23 11:30N 39°20' W 124°17'20916.2
2015-Aug-22 22:33N 42°47' W 124°60'1616.2
2015-Aug-22 21:33N 43°03' W 124°60'1716.5
2015-Aug-22 20:31N 43°20' W 125°00'1616.7
2015-Aug-22 19:32N 43°36' W 125°00'1716.9
2015-Aug-22 18:33N 43°53' W 124°60'3516.6
2015-Aug-22 16:27N 44°28' W 125°00'1616.9
2015-Aug-22 15:31N 44°44' W 125°00'1616.7
2015-Aug-22 14:33N 44°60' W 124°59'1716.7
2015-Aug-22 13:33N 45°17' W 124°60'1716.8
2015-Aug-22 12:33N 45°33' W 125°00'1716.9
2015-Aug-22 11:33N 45°50' W 125°01'1716.9
2015-Aug-22 10:33N 46°07' W 124°60'1716.9
2015-Aug-22 09:33N 46°24' W 124°60'1717.1
2015-Aug-22 08:33N 46°41' W 124°60'1716.8
2015-Aug-22 07:34N 46°58' W 124°59'1716.7
2015-Aug-22 06:33N 47°14' W 125°06'1717.0
2015-Aug-22 05:33N 47°30' W 125°13'1717.0
2015-Aug-22 04:33N 47°46' W 125°21'1615.9
2015-Aug-22 03:33N 48°02' W 125°23'1717.0
2015-Aug-22 02:33N 48°17' W 125°12'1616.2
2015-Aug-22 01:34N 48°31' W 124°58'1616.0
2015-Aug-22 00:33N 48°28' W 124°35'1716.6
2015-Aug-21 23:33N 48°22' W 124°12'1616.4
2015-Aug-21 22:34N 48°17' W 123°48'1514.5
2015-Aug-21 21:33N 48°20' W 123°27'1413.6
2015-Aug-21 20:33N 48°29' W 123°13'1616.0
2015-Aug-21 19:33N 48°45' W 123°06'1514.9
2015-Aug-21 18:33N 48°58' W 123°16'10 9.5
2015-Aug-21 17:33N 49°08' W 123°13'1010.2
2015-Aug-21 16:33N 49°09' W 122°57'2 2.4
2015-Aug-21 15:31N 49°11' W 122°55'0 0.0
2015-Aug-21 14:33N 49°11' W 122°55'0 0.0
2015-Aug-21 13:33N 49°11' W 122°55'0 0.0
2015-Aug-21 12:33N 49°11' W 122°55'0 0.0
2015-Aug-21 11:33N 49°11' W 122°55'0 0.0
2015-Aug-21 10:33N 49°11' W 122°55'0 0.0
2015-Aug-21 09:33N 49°11' W 122°55'0 0.0
2015-Aug-21 08:33N 49°11' W 122°55'0 0.0
2015-Aug-21 07:33N 49°11' W 122°55'0 0.0
2015-Aug-21 06:33N 49°11' W 122°55'0 0.0
2015-Aug-21 05:33N 49°11' W 122°55'0 0.0
2015-Aug-21 04:33N 49°11' W 122°55'0 0.0
2015-Aug-21 03:33N 49°11' W 122°55'0 0.0
2015-Aug-21 02:33N 49°11' W 122°55'0 0.0
2015-Aug-21 01:33N 49°11' W 122°55'0 0.0
2015-Aug-21 00:33N 49°11' W 122°55'0 0.0
2015-Aug-20 23:33N 49°11' W 122°55'0 0.0
2015-Aug-20 22:33N 49°11' W 122°55'5 4.6
2015-Aug-20 21:33N 49°09' W 123°01'10 9.6
2015-Aug-20 20:33N 49°07' W 123°15'7 7.2
2015-Aug-20 19:33N 49°00' W 123°14'1615.8
2015-Aug-20 18:33N 48°47' W 123°01'1514.7
2015-Aug-20 17:33N 48°35' W 123°13'1414.1
2015-Aug-20 16:33N 48°22' W 123°20'2 1.5
2015-Aug-20 15:31N 48°20' W 123°22'0 0.0
2015-Aug-20 14:31N 48°20' W 123°22'0 0.0
2015-Aug-20 13:31N 48°20' W 123°22'0 0.0
2015-Aug-20 12:31N 48°20' W 123°22'0 0.1
2015-Aug-20 11:31N 48°20' W 123°22'0 0.1
2015-Aug-20 10:31N 48°20' W 123°22'0 0.0
2015-Aug-20 09:31N 48°20' W 123°22'0 0.1
2015-Aug-20 08:31N 48°20' W 123°22'0 0.1
2015-Aug-20 07:28N 48°20' W 123°22'1 0.7
2015-Aug-20 06:33N 48°20' W 123°23'1111.4
2015-Aug-20 05:34N 48°09' W 123°23'1515.3
2015-Aug-20 04:33N 48°12' W 123°00'1514.4
2015-Aug-20 03:32N 48°07' W 122°40'1414.3
2015-Aug-20 02:33N 47°55' W 122°29'1515.2
2015-Aug-20 01:33N 47°40' W 122°27'1615.5
2015-Aug-20 00:33N 47°25' W 122°22'9 8.7
2015-Aug-19 23:33N 47°16' W 122°24'1 1.2
2015-Aug-19 22:16N 47°15' W 122°23'0 0.0
2015-Aug-19 21:33N 47°15' W 122°23'0 0.0
2015-Aug-19 20:33N 47°15' W 122°23'0 0.0
2015-Aug-19 19:32N 47°15' W 122°23'0 0.0
2015-Aug-19 18:31N 47°15' W 122°23'0 0.0
2015-Aug-19 17:33N 47°15' W 122°23'0 0.0
2015-Aug-19 16:33N 47°15' W 122°23'0 0.0
2015-Aug-19 15:33N 47°15' W 122°23'0 0.0
2015-Aug-19 14:33N 47°15' W 122°23'0 0.0
2015-Aug-19 13:33N 47°15' W 122°23'0 0.0
2015-Aug-19 12:33N 47°15' W 122°23'0 0.0
2015-Aug-19 11:33N 47°15' W 122°23'0 0.0
2015-Aug-19 10:33N 47°15' W 122°23'0 0.0
2015-Aug-19 09:33N 47°15' W 122°23'0 0.0
2015-Aug-19 08:33N 47°15' W 122°23'0 0.0
2015-Aug-19 07:33N 47°15' W 122°23'0 0.0
2015-Aug-19 06:33N 47°15' W 122°23'0 0.0
2015-Aug-19 05:33N 47°15' W 122°23'0 0.0
2015-Aug-19 04:33N 47°15' W 122°23'0 0.0
2015-Aug-19 03:33N 47°15' W 122°23'0 0.0
2015-Aug-19 02:33N 47°15' W 122°23'0 0.0
2015-Aug-19 01:33N 47°15' W 122°23'0 0.0
2015-Aug-19 00:33N 47°15' W 122°23'0 0.0
2015-Aug-18 23:33N 47°15' W 122°23'1 0.7
2015-Aug-18 22:31N 47°16' W 122°23'5 5.0
2015-Aug-18 21:33N 47°20' W 122°27'1514.5
2015-Aug-18 20:34N 47°34' W 122°28'1818.3
2015-Aug-18 19:34N 47°53' W 122°29'1615.9
2015-Aug-18 18:33N 48°07' W 122°40'1615.7
2015-Aug-18 17:33N 48°12' W 123°03'1515.1
2015-Aug-18 16:33N 48°10' W 123°25'1211.6
2015-Aug-18 15:33N 48°13' W 123°42'1111.2
2015-Aug-18 14:33N 48°14' W 123°59'1414.4
2015-Aug-18 13:33N 48°21' W 124°18'1616.0
2015-Aug-18 12:33N 48°27' W 124°40'1515.0
2015-Aug-18 11:33N 48°26' W 125°02'1717.0
2015-Aug-18 10:34N 48°11' W 125°14'1616.0
2015-Aug-18 09:33N 47°57' W 125°25'1616.5
2015-Aug-18 08:33N 47°41' W 125°19'1716.8
2015-Aug-18 07:33N 47°25' W 125°11'1716.7
2015-Aug-18 06:33N 47°09' W 125°04'1616.1
2015-Aug-18 05:34N 46°53' W 124°60'1616.0
2015-Aug-18 04:33N 46°37' W 124°60'615.8
2015-Aug-18 04:11N 46°31' W 124°59'115.8
2015-Aug-18 04:09N 46°31' W 124°60'915.7
2015-Aug-18 03:33N 46°21' W 124°60'1615.7
2015-Aug-18 02:33N 46°06' W 125°01'1515.5
2015-Aug-18 01:33N 45°50' W 125°00'1615.9
2015-Aug-18 00:33N 45°34' W 124°59'1616.1
2015-Aug-17 23:33N 45°18' W 124°60'1615.7
2015-Aug-17 22:33N 45°03' W 124°60'1615.7
2015-Aug-17 21:33N 44°47' W 125°00'1615.7
2015-Aug-17 20:33N 44°31' W 125°00'1615.9
2015-Aug-17 19:33N 44°15' W 125°00'1615.9
2015-Aug-17 18:33N 43°59' W 125°00'1616.1
2015-Aug-17 17:33N 43°43' W 125°00'1616.1
2015-Aug-17 16:33N 43°27' W 124°60'1616.0
2015-Aug-17 15:33N 43°11' W 125°00'1515.1
2015-Aug-17 14:32N 42°56' W 125°00'  

Dump ship's entire track history